createdAt,value
2023-04-20T00:00:28.932Z,1020.52
2023-04-20T00:00:59.684Z,1020.83
2023-04-20T00:01:16.649Z,1020.83
2023-04-20T00:01:36.953Z,1020.62
2023-04-20T00:02:03.837Z,1020.62
2023-04-20T00:02:36.680Z,1020.62
2023-04-20T00:03:07.844Z,1020.52
2023-04-20T00:03:36.699Z,1020.62
2023-04-20T00:03:56.662Z,1020.62
2023-04-20T00:04:27.594Z,1020.62
2023-04-20T00:04:59.506Z,1020.72
2023-04-20T00:05:17.241Z,1020.72
2023-04-20T00:05:37.028Z,1020.42
2023-04-20T00:06:03.697Z,1020.42
2023-04-20T00:06:36.560Z,1020.42
2023-04-20T00:07:07.983Z,1020.42
2023-04-20T00:07:36.473Z,1020.52
2023-04-20T00:07:57.137Z,1020.52
2023-04-20T00:08:27.640Z,1020.52
2023-04-20T00:08:59.448Z,1020.32
2023-04-20T00:09:16.920Z,1020.32
2023-04-20T00:09:37.253Z,1020.42
2023-04-20T00:10:05.481Z,1020.42
2023-04-20T00:10:36.552Z,1020.42
2023-04-20T00:11:07.464Z,1020.42
2023-04-20T00:11:36.739Z,1020.32
2023-04-20T00:11:56.561Z,1020.32
2023-04-20T00:12:27.607Z,1020.32
2023-04-20T00:12:59.596Z,1020.42
2023-04-20T00:13:16.585Z,1020.42
2023-04-20T00:13:37.206Z,1020.62
2023-04-20T00:14:03.730Z,1020.62
2023-04-20T00:14:37.063Z,1020.62
2023-04-20T00:15:08.959Z,1020.42
2023-04-20T00:15:36.739Z,1020.22
2023-04-20T00:15:56.894Z,1020.22
2023-04-20T00:16:27.840Z,1020.22
2023-04-20T00:16:59.646Z,1020.22
2023-04-20T00:17:16.648Z,1020.22
2023-04-20T00:17:37.039Z,1020.42
2023-04-20T00:18:03.590Z,1020.42
2023-04-20T00:18:36.963Z,1020.42
2023-04-20T00:19:07.501Z,1020.32
2023-04-20T00:19:37.032Z,1020.42
2023-04-20T00:19:56.489Z,1020.42
2023-04-20T00:20:28.013Z,1020.42
2023-04-20T00:20:59.530Z,1020.32
2023-04-20T00:21:16.709Z,1020.32
2023-04-20T00:21:36.987Z,1020.11
2023-04-20T00:22:03.693Z,1020.11
2023-04-20T00:22:36.682Z,1020.11
2023-04-20T00:23:07.812Z,1020.11
2023-04-20T00:23:36.700Z,1020.52
2023-04-20T00:23:56.522Z,1020.52
2023-04-20T00:24:27.653Z,1020.52
2023-04-20T00:24:59.537Z,1020.32
2023-04-20T00:25:17.546Z,1020.32
2023-04-20T00:25:37.031Z,1020.32
2023-04-20T00:26:03.789Z,1020.32
2023-04-20T00:26:37.035Z,1020.32
2023-04-20T00:27:07.706Z,1020.11
2023-04-20T00:27:36.656Z,1020.22
2023-04-20T00:27:56.498Z,1020.22
2023-04-20T00:28:27.640Z,1020.22
2023-04-20T00:28:59.646Z,1020.32
2023-04-20T00:29:16.974Z,1020.32
2023-04-20T00:29:37.049Z,1020.22
2023-04-20T00:30:06.053Z,1020.22
2023-04-20T00:30:36.696Z,1020.22
2023-04-20T00:31:07.517Z,1020.22
2023-04-20T00:31:36.640Z,1020.32
2023-04-20T00:31:56.504Z,1020.32
2023-04-20T00:32:27.579Z,1020.32
2023-04-20T00:32:59.532Z,1020.11
2023-04-20T00:33:16.853Z,1020.11
2023-04-20T00:33:37.243Z,1020.22
2023-04-20T00:34:03.642Z,1020.22
2023-04-20T00:34:36.533Z,1020.22
2023-04-20T00:35:08.035Z,1020.01
2023-04-20T00:35:36.648Z,1020.32
2023-04-20T00:35:56.825Z,1020.32
2023-04-20T00:36:28.092Z,1020.32
2023-04-20T00:36:59.716Z,1020.11
2023-04-20T00:37:16.807Z,1020.11
2023-04-20T00:37:37.140Z,1020.11
2023-04-20T00:38:03.842Z,1020.11
2023-04-20T00:38:36.603Z,1020.11
2023-04-20T00:39:07.659Z,1020.32
2023-04-20T00:39:36.580Z,1020.11
2023-04-20T00:39:56.564Z,1020.11
2023-04-20T00:40:27.995Z,1020.11
2023-04-20T00:40:59.744Z,1020.11
2023-04-20T00:41:17.481Z,1020.11
2023-04-20T00:41:38.295Z,1020.42
2023-04-20T00:42:03.728Z,1020.42
2023-04-20T00:42:36.444Z,1020.42
2023-04-20T00:43:07.517Z,1020.22
2023-04-20T00:43:36.573Z,1020.11
2023-04-20T00:43:56.753Z,1020.11
2023-04-20T00:44:28.024Z,1020.11
2023-04-20T00:44:59.562Z,1020.11
2023-04-20T00:45:17.899Z,1020.11
2023-04-20T00:45:37.262Z,1020.42
2023-04-20T00:46:03.768Z,1020.42
2023-04-20T00:46:36.710Z,1020.42
2023-04-20T00:47:07.492Z,1020.01
2023-04-20T00:47:36.584Z,1020.11
2023-04-20T00:47:56.573Z,1020.11
2023-04-20T00:48:27.576Z,1020.11
2023-04-20T00:48:59.631Z,1020.01
2023-04-20T00:49:16.893Z,1020.01
2023-04-20T00:49:36.979Z,1020.32
2023-04-20T00:50:05.540Z,1020.32
2023-04-20T00:50:36.541Z,1020.32
2023-04-20T00:51:07.684Z,1020.11
2023-04-20T00:51:36.783Z,1020.32
2023-04-20T00:51:56.563Z,1020.32
2023-04-20T00:52:27.563Z,1020.32
2023-04-20T00:52:59.615Z,1020.11
2023-04-20T00:53:16.625Z,1020.11
2023-04-20T00:53:37.115Z,1020.22
2023-04-20T00:54:03.746Z,1020.22
2023-04-20T00:54:37.087Z,1020.22
2023-04-20T00:55:08.026Z,1020.22
2023-04-20T00:55:36.523Z,1020.42
2023-04-20T00:55:56.922Z,1020.42
2023-04-20T00:56:27.667Z,1020.42
2023-04-20T00:56:59.535Z,1020.32
2023-04-20T00:57:16.808Z,1020.32
2023-04-20T00:57:37.016Z,1020.11
2023-04-20T00:58:03.757Z,1020.11
2023-04-20T00:58:36.717Z,1020.11
2023-04-20T00:59:07.624Z,1020.11
2023-04-20T00:59:36.577Z,1020.11
2023-04-20T00:59:56.572Z,1020.11
2023-04-20T01:00:28.628Z,1020.11
2023-04-20T01:00:59.827Z,1020.11
2023-04-20T01:01:16.707Z,1020.11
2023-04-20T01:01:37.008Z,1020.11
2023-04-20T01:02:04.234Z,1020.11
2023-04-20T01:02:37.053Z,1020.11
2023-04-20T01:03:23.778Z,1020.11
2023-04-20T01:03:56.677Z,1019.74
2023-04-20T01:04:27.824Z,1019.74
2023-04-20T01:04:59.622Z,1020.01
2023-04-20T01:05:16.960Z,1020.01
2023-04-20T01:05:37.411Z,1020.11
2023-04-20T01:06:03.785Z,1020.11
2023-04-20T01:06:37.400Z,1020.11
2023-04-20T01:07:07.682Z,1020.01
2023-04-20T01:07:37.545Z,1020.01
2023-04-20T01:07:56.476Z,1020.01
2023-04-20T01:08:27.503Z,1020.01
2023-04-20T01:08:59.658Z,1020.01
2023-04-20T01:09:17.044Z,1020.01
2023-04-20T01:09:37.160Z,1020.11
2023-04-20T01:10:05.288Z,1020.11
2023-04-20T01:10:36.926Z,1020.11
2023-04-20T01:11:07.682Z,1019.91
2023-04-20T01:11:36.544Z,1020.01
2023-04-20T01:11:56.543Z,1020.01
2023-04-20T01:12:27.655Z,1020.01
2023-04-20T01:12:59.642Z,1019.91
2023-04-20T01:13:16.639Z,1019.91
2023-04-20T01:13:37.057Z,1019.74
2023-04-20T01:14:03.946Z,1019.74
2023-04-20T01:14:36.632Z,1019.74
2023-04-20T01:15:09.260Z,1019.91
2023-04-20T01:15:38.445Z,1020.11
2023-04-20T01:15:58.033Z,1020.11
2023-04-20T01:16:29.029Z,1020.11
2023-04-20T01:17:01.075Z,1020.11
2023-04-20T01:17:18.006Z,1020.11
2023-04-20T01:17:38.310Z,1019.81
2023-04-20T01:18:05.356Z,1019.81
2023-04-20T01:18:38.148Z,1019.81
2023-04-20T01:19:09.290Z,1019.91
2023-04-20T01:19:37.541Z,1019.91
2023-04-20T01:19:57.499Z,1019.91
2023-04-20T01:20:29.513Z,1019.91
2023-04-20T01:21:00.697Z,1020.01
2023-04-20T01:21:17.682Z,1020.01
2023-04-20T01:21:38.471Z,1019.81
2023-04-20T01:22:04.334Z,1019.81
2023-04-20T01:22:37.529Z,1019.81
2023-04-20T01:23:08.637Z,1020.01
2023-04-20T01:23:37.964Z,1020.22
2023-04-20T01:23:58.519Z,1020.22
2023-04-20T01:24:30.355Z,1020.22
2023-04-20T01:25:02.988Z,1019.91
2023-04-20T01:25:18.278Z,1019.91
2023-04-20T01:25:38.749Z,1020.01
2023-04-20T01:26:05.268Z,1020.01
2023-04-20T01:26:38.437Z,1020.01
2023-04-20T01:27:09.324Z,1020.22
2023-04-20T01:27:38.192Z,1020.22
2023-04-20T01:27:58.001Z,1020.22
2023-04-20T01:28:29.080Z,1020.22
2023-04-20T01:29:01.260Z,1019.74
2023-04-20T01:29:18.422Z,1019.74
2023-04-20T01:29:38.452Z,1020.11
2023-04-20T01:30:08.918Z,1020.11
2023-04-20T01:30:37.742Z,1020.11
2023-04-20T01:31:08.931Z,1020.01
2023-04-20T01:31:38.359Z,1019.91
2023-04-20T01:31:57.683Z,1019.91
2023-04-20T01:32:28.778Z,1019.91
2023-04-20T01:33:01.337Z,1020.01
2023-04-20T01:33:18.374Z,1020.01
2023-04-20T01:33:38.252Z,1020.11
2023-04-20T01:34:04.934Z,1020.11
2023-04-20T01:34:37.880Z,1020.11
2023-04-20T01:35:10.590Z,1019.91
2023-04-20T01:35:39.358Z,1019.91
2023-04-20T01:36:00.206Z,1019.91
2023-04-20T01:36:28.882Z,1019.91
2023-04-20T01:37:01.444Z,1020.11
2023-04-20T01:37:18.309Z,1020.11
2023-04-20T01:37:38.288Z,1019.91
2023-04-20T01:38:04.559Z,1019.91
2023-04-20T01:38:37.826Z,1019.91
2023-04-20T01:39:08.554Z,1019.81
2023-04-20T01:39:38.498Z,1020.01
2023-04-20T01:39:57.476Z,1020.01
2023-04-20T01:40:29.773Z,1020.01
2023-04-20T01:41:01.134Z,1020.11
2023-04-20T01:41:17.493Z,1020.11
2023-04-20T01:41:38.092Z,1020.01
2023-04-20T01:42:07.401Z,1020.01
2023-04-20T01:42:38.978Z,1020.01
2023-04-20T01:43:08.572Z,1019.91
2023-04-20T01:43:37.899Z,1019.81
2023-04-20T01:43:57.711Z,1019.81
2023-04-20T01:44:28.648Z,1019.81
2023-04-20T01:45:02.584Z,1019.91
2023-04-20T01:45:17.839Z,1019.91
2023-04-20T01:45:38.927Z,1019.91
2023-04-20T01:46:05.085Z,1019.91
2023-04-20T01:46:37.649Z,1019.91
2023-04-20T01:47:09.284Z,1020.01
2023-04-20T01:47:37.806Z,1019.81
2023-04-20T01:47:57.965Z,1019.81
2023-04-20T01:48:28.792Z,1019.81
2023-04-20T01:49:00.831Z,1019.81
2023-04-20T01:49:17.851Z,1019.81
2023-04-20T01:49:38.141Z,1019.81
2023-04-20T01:50:07.244Z,1019.81
2023-04-20T01:50:37.681Z,1019.81
2023-04-20T01:51:08.977Z,1019.81
2023-04-20T01:51:38.053Z,1019.64
2023-04-20T01:51:57.495Z,1019.64
2023-04-20T01:52:28.008Z,1019.64
2023-04-20T01:53:00.106Z,1019.91
2023-04-20T01:53:18.048Z,1019.91
2023-04-20T01:53:37.144Z,1019.91
2023-04-20T01:54:04.941Z,1019.91
2023-04-20T01:54:37.396Z,1019.91
2023-04-20T01:55:09.736Z,1019.91
2023-04-20T01:55:37.784Z,1019.91
2023-04-20T01:55:57.834Z,1019.91
2023-04-20T01:56:28.526Z,1019.91
2023-04-20T01:57:00.863Z,1019.91
2023-04-20T01:57:17.919Z,1019.91
2023-04-20T01:57:38.014Z,1020.11
2023-04-20T01:58:04.818Z,1020.11
2023-04-20T01:58:37.798Z,1020.11
2023-04-20T01:59:08.252Z,1019.91
2023-04-20T01:59:37.727Z,1019.91
2023-04-20T01:59:57.884Z,1019.91
2023-04-20T02:00:29.526Z,1019.91
2023-04-20T02:01:00.871Z,1019.91
2023-04-20T02:01:18.475Z,1019.91
2023-04-20T02:01:38.596Z,1019.81
2023-04-20T02:02:04.371Z,1019.81
2023-04-20T02:02:38.540Z,1019.81
2023-04-20T02:03:08.594Z,1019.91
2023-04-20T02:03:37.863Z,1019.74
2023-04-20T02:03:57.552Z,1019.74
2023-04-20T02:04:29.079Z,1019.74
2023-04-20T02:04:59.786Z,1019.91
2023-04-20T02:05:17.524Z,1019.91
2023-04-20T02:05:37.403Z,1019.81
2023-04-20T02:06:03.678Z,1019.81
2023-04-20T02:06:36.462Z,1019.81
2023-04-20T02:07:07.790Z,1019.81
2023-04-20T02:07:36.787Z,1019.81
2023-04-20T02:07:56.376Z,1019.81
2023-04-20T02:08:27.636Z,1019.81
2023-04-20T02:08:59.571Z,1019.91
2023-04-20T02:09:16.997Z,1019.91
2023-04-20T02:09:37.032Z,1019.64
2023-04-20T02:10:05.230Z,1019.64
2023-04-20T02:10:37.012Z,1019.64
2023-04-20T02:11:07.545Z,1019.91
2023-04-20T02:11:36.611Z,1019.91
2023-04-20T02:11:56.494Z,1019.91
2023-04-20T02:12:27.772Z,1019.91
2023-04-20T02:12:59.539Z,1019.81
2023-04-20T02:13:16.584Z,1019.81
2023-04-20T02:13:37.088Z,1019.64
2023-04-20T02:14:03.965Z,1019.64
2023-04-20T02:14:36.541Z,1019.64
2023-04-20T02:15:08.655Z,1019.74
2023-04-20T02:15:36.781Z,1019.64
2023-04-20T02:15:56.772Z,1019.64
2023-04-20T02:16:27.658Z,1019.64
2023-04-20T02:16:59.664Z,1019.74
2023-04-20T02:17:16.768Z,1019.74
2023-04-20T02:17:37.470Z,1019.74
2023-04-20T02:18:03.820Z,1019.74
2023-04-20T02:18:36.619Z,1019.74
2023-04-20T02:19:07.637Z,1019.81
2023-04-20T02:19:36.735Z,1019.81
2023-04-20T02:19:56.490Z,1019.81
2023-04-20T02:20:28.124Z,1019.81
2023-04-20T02:20:59.677Z,1019.64
2023-04-20T02:21:16.817Z,1019.64
2023-04-20T02:21:37.057Z,1019.74
2023-04-20T02:22:03.690Z,1019.74
2023-04-20T02:22:36.537Z,1019.74
2023-04-20T02:23:07.789Z,1019.91
2023-04-20T02:23:36.613Z,1019.74
2023-04-20T02:23:56.527Z,1019.74
2023-04-20T02:24:28.108Z,1019.74
2023-04-20T02:24:59.480Z,1019.91
2023-04-20T02:25:17.082Z,1019.91
2023-04-20T02:25:37.146Z,1019.81
2023-04-20T02:26:03.694Z,1019.81
2023-04-20T02:26:36.985Z,1019.81
2023-04-20T02:27:07.707Z,1019.81
2023-04-20T02:27:36.494Z,1019.81
2023-04-20T02:27:56.821Z,1019.81
2023-04-20T02:28:27.774Z,1019.81
2023-04-20T02:28:59.613Z,1019.81
2023-04-20T02:29:17.330Z,1019.81
2023-04-20T02:29:37.023Z,1019.91
2023-04-20T02:30:05.701Z,1019.91
2023-04-20T02:30:36.555Z,1019.91
2023-04-20T02:31:07.689Z,1019.74
2023-04-20T02:31:36.790Z,1019.74
2023-04-20T02:31:56.945Z,1019.74
2023-04-20T02:32:27.773Z,1019.74
2023-04-20T02:32:59.660Z,1019.74
2023-04-20T02:33:16.733Z,1019.74
2023-04-20T02:33:37.135Z,1019.81
2023-04-20T02:34:03.693Z,1019.81
2023-04-20T02:34:36.911Z,1019.81
2023-04-20T02:35:08.072Z,1019.74
2023-04-20T02:35:36.628Z,1019.74
2023-04-20T02:35:56.856Z,1019.74
2023-04-20T02:36:27.830Z,1019.74
2023-04-20T02:36:59.528Z,1019.81
2023-04-20T02:37:16.770Z,1019.81
2023-04-20T02:37:37.077Z,1019.74
2023-04-20T02:38:03.742Z,1019.74
2023-04-20T02:38:36.674Z,1019.74
2023-04-20T02:39:07.662Z,1019.74
2023-04-20T02:39:36.936Z,1019.91
2023-04-20T02:39:56.469Z,1019.91
2023-04-20T02:40:28.192Z,1019.91
2023-04-20T02:40:59.449Z,1019.64
2023-04-20T02:41:16.620Z,1019.64
2023-04-20T02:41:37.879Z,1019.74
2023-04-20T02:42:03.701Z,1019.74
2023-04-20T02:42:37.772Z,1019.74
2023-04-20T02:43:07.777Z,1019.74
2023-04-20T02:43:36.895Z,1019.91
2023-04-20T02:43:56.413Z,1019.91
2023-04-20T02:44:27.683Z,1019.91
2023-04-20T02:44:59.648Z,1019.74
2023-04-20T02:45:17.622Z,1019.74
2023-04-20T02:45:37.201Z,1019.81
2023-04-20T02:46:03.731Z,1019.81
2023-04-20T02:46:36.760Z,1019.81
2023-04-20T02:47:07.650Z,1019.74
2023-04-20T02:47:37.112Z,1019.74
2023-04-20T02:47:56.437Z,1019.74
2023-04-20T02:48:27.914Z,1019.74
2023-04-20T02:48:59.577Z,1019.64
2023-04-20T02:49:16.955Z,1019.64
2023-04-20T02:49:37.493Z,1019.54
2023-04-20T02:50:05.101Z,1019.54
2023-04-20T02:50:36.543Z,1019.54
2023-04-20T02:51:07.597Z,1019.74
2023-04-20T02:51:36.596Z,1019.74
2023-04-20T02:51:56.460Z,1019.74
2023-04-20T02:52:27.706Z,1019.74
2023-04-20T02:52:59.548Z,1019.64
2023-04-20T02:53:16.669Z,1019.64
2023-04-20T02:53:37.067Z,1019.74
2023-04-20T02:54:03.793Z,1019.74
2023-04-20T02:54:36.695Z,1019.74
2023-04-20T02:55:08.287Z,1019.54
2023-04-20T02:55:37.169Z,1019.54
2023-04-20T02:55:56.845Z,1019.54
2023-04-20T02:56:27.721Z,1019.54
2023-04-20T02:56:59.676Z,1019.74
2023-04-20T02:57:16.790Z,1019.74
2023-04-20T02:57:37.076Z,1019.64
2023-04-20T02:58:03.700Z,1019.64
2023-04-20T02:58:37.178Z,1019.64
2023-04-20T02:59:07.885Z,1019.74
2023-04-20T02:59:37.080Z,1019.64
2023-04-20T02:59:56.437Z,1019.64
2023-04-20T03:00:28.801Z,1019.64
2023-04-20T03:00:59.603Z,1019.64
2023-04-20T03:01:16.822Z,1019.64
2023-04-20T03:01:37.067Z,1019.54
2023-04-20T03:02:03.730Z,1019.54
2023-04-20T03:02:36.891Z,1019.54
2023-04-20T03:03:07.730Z,1019.74
2023-04-20T03:03:36.761Z,1019.64
2023-04-20T03:03:56.571Z,1019.64
2023-04-20T03:04:28.065Z,1019.64
2023-04-20T03:04:59.531Z,1019.64
2023-04-20T03:05:16.960Z,1019.64
2023-04-20T03:05:37.075Z,1019.74
2023-04-20T03:06:03.772Z,1019.74
2023-04-20T03:06:38.132Z,1019.74
2023-04-20T03:07:07.630Z,1019.81
2023-04-20T03:07:36.709Z,1019.74
2023-04-20T03:07:56.951Z,1019.74
2023-04-20T03:08:27.944Z,1019.74
2023-04-20T03:08:59.724Z,1019.54
2023-04-20T03:09:17.185Z,1019.54
2023-04-20T03:09:37.242Z,1019.74
2023-04-20T03:10:05.068Z,1019.74
2023-04-20T03:10:36.652Z,1019.74
2023-04-20T03:11:07.772Z,1019.74
2023-04-20T03:11:36.771Z,1019.74
2023-04-20T03:11:56.501Z,1019.74
2023-04-20T03:12:27.761Z,1019.74
2023-04-20T03:12:59.579Z,1019.74
2023-04-20T03:13:16.669Z,1019.74
2023-04-20T03:13:37.089Z,1019.64
2023-04-20T03:14:03.839Z,1019.64
2023-04-20T03:14:36.614Z,1019.64
2023-04-20T03:15:08.795Z,1019.54
2023-04-20T03:15:36.666Z,1019.64
2023-04-20T03:15:57.090Z,1019.64
2023-04-20T03:16:27.707Z,1019.64
2023-04-20T03:16:59.596Z,1019.64
2023-04-20T03:17:16.950Z,1019.64
2023-04-20T03:17:37.294Z,1019.74
2023-04-20T03:18:03.897Z,1019.74
2023-04-20T03:18:36.727Z,1019.74
2023-04-20T03:19:07.703Z,1019.64
2023-04-20T03:19:36.604Z,1019.74
2023-04-20T03:19:56.792Z,1019.74
2023-04-20T03:20:28.184Z,1019.74
2023-04-20T03:20:59.521Z,1019.64
2023-04-20T03:21:16.696Z,1019.64
2023-04-20T03:21:37.293Z,1019.74
2023-04-20T03:22:03.843Z,1019.74
2023-04-20T03:22:36.529Z,1019.74
2023-04-20T03:23:07.700Z,1019.81
2023-04-20T03:23:36.750Z,1019.81
2023-04-20T03:23:56.864Z,1019.81
2023-04-20T03:24:27.674Z,1019.81
2023-04-20T03:24:59.513Z,1019.54
2023-04-20T03:25:17.110Z,1019.54
2023-04-20T03:25:37.143Z,1019.74
2023-04-20T03:26:03.831Z,1019.74
2023-04-20T03:26:36.520Z,1019.74
2023-04-20T03:27:07.581Z,1019.74
2023-04-20T03:27:36.939Z,1019.81
2023-04-20T03:27:57.154Z,1019.81
2023-04-20T03:28:27.961Z,1019.81
2023-04-20T03:28:59.620Z,1019.64
2023-04-20T03:29:17.114Z,1019.64
2023-04-20T03:29:37.098Z,1019.91
2023-04-20T03:30:05.935Z,1019.91
2023-04-20T03:30:37.177Z,1019.91
2023-04-20T03:31:07.626Z,1019.74
2023-04-20T03:31:36.835Z,1019.54
2023-04-20T03:31:56.536Z,1019.54
2023-04-20T03:32:27.702Z,1019.54
2023-04-20T03:33:00.045Z,1019.54
2023-04-20T03:33:16.636Z,1019.54
2023-04-20T03:33:37.115Z,1019.74
2023-04-20T03:34:03.789Z,1019.74
2023-04-20T03:34:36.530Z,1019.74
2023-04-20T03:35:08.235Z,1019.81
2023-04-20T03:35:36.561Z,1019.64
2023-04-20T03:35:56.718Z,1019.64
2023-04-20T03:36:27.672Z,1019.64
2023-04-20T03:36:59.533Z,1019.64
2023-04-20T03:37:16.637Z,1019.64
2023-04-20T03:37:37.553Z,1019.54
2023-04-20T03:38:03.989Z,1019.54
2023-04-20T03:38:36.516Z,1019.54
2023-04-20T03:39:07.634Z,1019.54
2023-04-20T03:39:36.992Z,1019.74
2023-04-20T03:39:56.448Z,1019.74
2023-04-20T03:40:28.335Z,1019.74
2023-04-20T03:40:59.697Z,1019.44
2023-04-20T03:41:16.648Z,1019.44
2023-04-20T03:41:37.127Z,1019.64
2023-04-20T03:42:04.026Z,1019.64
2023-04-20T03:42:36.747Z,1019.64
2023-04-20T03:43:07.764Z,1019.74
2023-04-20T03:43:37.663Z,1019.54
2023-04-20T03:43:56.377Z,1019.54
2023-04-20T03:44:27.744Z,1019.54
2023-04-20T03:44:59.605Z,1019.74
2023-04-20T03:45:17.588Z,1019.74
2023-04-20T03:45:37.095Z,1019.64
2023-04-20T03:46:03.934Z,1019.64
2023-04-20T03:46:36.581Z,1019.64
2023-04-20T03:47:08.029Z,1019.74
2023-04-20T03:47:36.679Z,1019.64
2023-04-20T03:47:56.525Z,1019.64
2023-04-20T03:48:27.912Z,1019.64
2023-04-20T03:48:59.654Z,1019.54
2023-04-20T03:49:16.797Z,1019.54
2023-04-20T03:49:37.160Z,1019.81
2023-04-20T03:50:05.093Z,1019.81
2023-04-20T03:50:36.576Z,1019.81
2023-04-20T03:51:08.149Z,1019.54
2023-04-20T03:51:36.654Z,1019.64
2023-04-20T03:51:56.432Z,1019.64
2023-04-20T03:52:27.915Z,1019.64
2023-04-20T03:52:59.652Z,1019.23
2023-04-20T03:53:16.722Z,1019.23
2023-04-20T03:53:38.955Z,1019.64
2023-04-20T03:54:03.757Z,1019.64
2023-04-20T03:54:36.818Z,1019.64
2023-04-20T03:55:08.117Z,1019.54
2023-04-20T03:55:36.642Z,1019.54
2023-04-20T03:55:56.860Z,1019.54
2023-04-20T03:56:27.703Z,1019.54
2023-04-20T03:56:59.595Z,1019.54
2023-04-20T03:57:16.637Z,1019.54
2023-04-20T03:57:37.054Z,1019.54
2023-04-20T03:58:03.822Z,1019.54
2023-04-20T03:58:36.563Z,1019.54
2023-04-20T03:59:07.712Z,1019.74
2023-04-20T03:59:36.603Z,1019.64
2023-04-20T03:59:56.467Z,1019.64
2023-04-20T04:00:28.805Z,1019.64
2023-04-20T04:00:59.668Z,1019.64
2023-04-20T04:01:16.874Z,1019.64
2023-04-20T04:01:37.193Z,1019.44
2023-04-20T04:02:03.859Z,1019.44
2023-04-20T04:02:38.203Z,1019.44
2023-04-20T04:03:07.943Z,1019.54
2023-04-20T04:03:37.222Z,1019.64
2023-04-20T04:03:56.621Z,1019.64
2023-04-20T04:04:28.243Z,1019.64
2023-04-20T04:04:59.726Z,1019.74
2023-04-20T04:05:17.662Z,1019.74
2023-04-20T04:05:37.486Z,1019.54
2023-04-20T04:06:03.809Z,1019.54
2023-04-20T04:06:36.598Z,1019.54
2023-04-20T04:07:07.706Z,1019.74
2023-04-20T04:07:36.619Z,1019.54
2023-04-20T04:07:56.816Z,1019.54
2023-04-20T04:08:27.870Z,1019.54
2023-04-20T04:08:59.636Z,1019.64
2023-04-20T04:09:17.275Z,1019.64
2023-04-20T04:09:37.523Z,1019.54
2023-04-20T04:10:05.273Z,1019.54
2023-04-20T04:10:36.611Z,1019.54
2023-04-20T04:11:07.664Z,1019.34
2023-04-20T04:11:36.792Z,1019.64
2023-04-20T04:11:57.133Z,1019.64
2023-04-20T04:12:27.933Z,1019.64
2023-04-20T04:12:59.842Z,1019.74
2023-04-20T04:13:17.400Z,1019.74
2023-04-20T04:13:37.301Z,1019.64
2023-04-20T04:14:04.222Z,1019.64
2023-04-20T04:14:36.812Z,1019.64
2023-04-20T04:15:09.276Z,1019.54
2023-04-20T04:15:36.903Z,1019.64
2023-04-20T04:15:57.280Z,1019.64
2023-04-20T04:16:28.211Z,1019.64
2023-04-20T04:16:59.948Z,1019.64
2023-04-20T04:17:16.986Z,1019.64
2023-04-20T04:17:37.360Z,1019.64
2023-04-20T04:18:04.174Z,1019.64
2023-04-20T04:18:36.737Z,1019.64
2023-04-20T04:19:07.903Z,1019.54
2023-04-20T04:19:36.777Z,1019.54
2023-04-20T04:19:56.637Z,1019.54
2023-04-20T04:20:28.581Z,1019.54
2023-04-20T04:20:59.871Z,1019.64
2023-04-20T04:21:16.847Z,1019.64
2023-04-20T04:21:37.784Z,1019.64
2023-04-20T04:22:04.084Z,1019.64
2023-04-20T04:22:36.935Z,1019.64
2023-04-20T04:23:07.962Z,1019.64
2023-04-20T04:23:36.824Z,1019.64
2023-04-20T04:23:56.726Z,1019.64
2023-04-20T04:24:28.128Z,1019.64
2023-04-20T04:24:59.939Z,1019.64
2023-04-20T04:25:17.305Z,1019.64
2023-04-20T04:25:37.823Z,1019.64
2023-04-20T04:26:04.042Z,1019.64
2023-04-20T04:26:36.700Z,1019.64
2023-04-20T04:27:07.807Z,1019.91
2023-04-20T04:27:36.831Z,1019.81
2023-04-20T04:27:56.698Z,1019.81
2023-04-20T04:28:28.453Z,1019.81
2023-04-20T04:28:59.971Z,1019.64
2023-04-20T04:29:17.306Z,1019.64
2023-04-20T04:29:37.793Z,1019.54
2023-04-20T04:30:06.006Z,1019.54
2023-04-20T04:30:36.947Z,1019.54
2023-04-20T04:31:07.940Z,1019.74
2023-04-20T04:31:36.962Z,1019.64
2023-04-20T04:31:56.960Z,1019.64
2023-04-20T04:32:28.094Z,1019.64
2023-04-20T04:33:00.194Z,1019.81
2023-04-20T04:33:16.968Z,1019.81
2023-04-20T04:33:37.320Z,1019.54
2023-04-20T04:34:04.085Z,1019.54
2023-04-20T04:34:36.774Z,1019.54
2023-04-20T04:35:08.562Z,1019.74
2023-04-20T04:35:37.095Z,1019.64
2023-04-20T04:35:57.181Z,1019.64
2023-04-20T04:36:28.034Z,1019.64
2023-04-20T04:36:59.878Z,1019.64
2023-04-20T04:37:16.961Z,1019.64
2023-04-20T04:37:37.406Z,1019.74
2023-04-20T04:38:04.006Z,1019.74
2023-04-20T04:38:36.780Z,1019.74
2023-04-20T04:39:08.144Z,1019.91
2023-04-20T04:39:37.051Z,1019.81
2023-04-20T04:39:56.713Z,1019.81
2023-04-20T04:40:28.520Z,1019.81
2023-04-20T04:40:59.946Z,1019.91
2023-04-20T04:41:16.965Z,1019.91
2023-04-20T04:41:37.349Z,1019.64
2023-04-20T04:42:04.998Z,1019.64
2023-04-20T04:42:37.221Z,1019.64
2023-04-20T04:43:08.152Z,1019.64
2023-04-20T04:43:36.790Z,1019.74
2023-04-20T04:43:56.710Z,1019.74
2023-04-20T04:44:28.059Z,1019.74
2023-04-20T04:45:00.141Z,1019.74
2023-04-20T04:45:17.883Z,1019.74
2023-04-20T04:45:37.473Z,1019.74
2023-04-20T04:46:04.010Z,1019.74
2023-04-20T04:46:37.113Z,1019.74
2023-04-20T04:47:07.890Z,1019.81
2023-04-20T04:47:37.185Z,1019.74
2023-04-20T04:47:57.238Z,1019.74
2023-04-20T04:48:28.086Z,1019.74
2023-04-20T04:48:59.860Z,1019.64
2023-04-20T04:49:17.300Z,1019.64
2023-04-20T04:49:37.641Z,1019.74
2023-04-20T04:50:05.478Z,1019.74
2023-04-20T04:50:37.187Z,1019.74
2023-04-20T04:51:07.966Z,1019.81
2023-04-20T04:51:36.738Z,1019.54
2023-04-20T04:51:56.712Z,1019.54
2023-04-20T04:52:28.149Z,1019.54
2023-04-20T04:52:59.863Z,1019.64
2023-04-20T04:53:16.907Z,1019.64
2023-04-20T04:53:37.433Z,1019.91
2023-04-20T04:54:04.060Z,1019.91
2023-04-20T04:54:36.953Z,1019.91
2023-04-20T04:55:08.647Z,1019.74
2023-04-20T04:55:36.916Z,1019.91
2023-04-20T04:55:57.067Z,1019.91
2023-04-20T04:56:28.058Z,1019.91
2023-04-20T04:56:59.856Z,1019.81
2023-04-20T04:57:18.059Z,1019.81
2023-04-20T04:57:37.941Z,1019.64
2023-04-20T04:58:04.019Z,1019.64
2023-04-20T04:58:36.946Z,1019.64
2023-04-20T04:59:07.901Z,1019.74
2023-04-20T04:59:36.866Z,1019.81
2023-04-20T04:59:56.741Z,1019.81
2023-04-20T05:00:28.976Z,1019.81
2023-04-20T05:01:00.041Z,1019.91
2023-04-20T05:01:16.937Z,1019.91
2023-04-20T05:01:37.863Z,1019.74
2023-04-20T05:02:04.049Z,1019.74
2023-04-20T05:02:37.195Z,1019.74
2023-04-20T05:03:08.061Z,1019.81
2023-04-20T05:03:37.173Z,1020.01
2023-04-20T05:03:57.218Z,1020.01
2023-04-20T05:04:28.295Z,1020.01
2023-04-20T05:04:59.939Z,1019.91
2023-04-20T05:05:17.334Z,1019.91
2023-04-20T05:05:37.491Z,1019.81
2023-04-20T05:06:03.935Z,1019.81
2023-04-20T05:06:36.773Z,1019.81
2023-04-20T05:07:07.929Z,1019.81
2023-04-20T05:07:36.719Z,1020.01
2023-04-20T05:07:56.716Z,1020.01
2023-04-20T05:08:28.037Z,1020.01
2023-04-20T05:08:59.897Z,1019.81
2023-04-20T05:09:17.277Z,1019.81
2023-04-20T05:09:37.796Z,1019.81
2023-04-20T05:10:05.458Z,1019.81
2023-04-20T05:10:36.764Z,1019.81
2023-04-20T05:11:07.939Z,1020.01
2023-04-20T05:11:36.756Z,1019.91
2023-04-20T05:11:56.810Z,1019.91
2023-04-20T05:12:27.890Z,1019.91
2023-04-20T05:13:00.026Z,1019.81
2023-04-20T05:13:17.094Z,1019.81
2023-04-20T05:13:37.878Z,1019.91
2023-04-20T05:14:04.147Z,1019.91
2023-04-20T05:14:36.821Z,1019.91
2023-04-20T05:15:08.820Z,1020.01
2023-04-20T05:15:36.998Z,1020.11
2023-04-20T05:15:57.223Z,1020.11
2023-04-20T05:16:28.084Z,1020.11
2023-04-20T05:16:59.994Z,1019.74
2023-04-20T05:17:17.176Z,1019.74
2023-04-20T05:17:37.489Z,1019.91
2023-04-20T05:18:04.258Z,1019.91
2023-04-20T05:18:36.880Z,1019.91
2023-04-20T05:19:07.852Z,1019.81
2023-04-20T05:19:36.904Z,1019.91
2023-04-20T05:19:56.739Z,1019.91
2023-04-20T05:20:28.474Z,1019.91
2023-04-20T05:20:59.874Z,1020.01
2023-04-20T05:21:17.060Z,1020.01
2023-04-20T05:21:37.908Z,1019.81
2023-04-20T05:22:04.027Z,1019.81
2023-04-20T05:22:36.855Z,1019.81
2023-04-20T05:23:07.955Z,1019.91